Time;durP1;ratioP1;P1;durP2;ratioP2;P2;SDS_P1;SDS_P2;PMS_P1;PMS_P2;Temp;Humidity;BMP_temperature;BMP_pressure;BME280_temperature;BME280_humidity;BME280_pressure;Samples;Min_cycle;Max_cycle;Signal;HPM_P1;HPM_P2
2023/07/29 00:00:41;;;;;;;2.63;1.90;;;;;;;20.13;77.54;98889.81;5109035;28;20220;-64
2023/07/29 00:03:08;;;;;;;2.30;1.80;;;;;;;20.13;78.59;98889.81;5108967;28;20196;-64
2023/07/29 00:05:35;;;;;;;2.47;1.97;;;;;;;20.11;77.36;98886.59;5108945;28;20195;-64
2023/07/29 00:08:02;;;;;;;2.50;2.00;;;;;;;20.04;74.97;98890.91;5109101;28;20282;-64
2023/07/29 00:10:28;;;;;;;4.33;2.10;;;;;;;20.01;76.37;98886.06;5108908;28;20207;-64
2023/07/29 00:12:57;;;;;;;2.17;1.80;;;;;;;20.02;75.68;98885.06;5108670;28;20673;-64
2023/07/29 00:15:24;;;;;;;2.87;2.00;;;;;;;20.02;76.19;98887.66;5108719;28;20620;-64
2023/07/29 00:17:51;;;;;;;2.60;1.83;;;;;;;19.98;76.30;98896.75;5108703;28;20203;-64
2023/07/29 00:20:17;;;;;;;7.30;1.80;;;;;;;19.93;76.29;98898.28;5108394;28;20222;-65
2023/07/29 00:22:44;;;;;;;2.33;2.00;;;;;;;19.93;74.88;98899.09;5108526;28;20208;-64
2023/07/29 00:25:11;;;;;;;2.60;2.03;;;;;;;19.90;74.68;98900.25;5108374;28;20583;-65
2023/07/29 00:27:38;;;;;;;2.57;1.87;;;;;;;19.86;74.95;98903.34;5108236;28;20204;-64
2023/07/29 00:30:08;;;;;;;2.17;1.77;;;;;;;19.91;74.21;98895.88;5108686;28;20207;-65
2023/07/29 00:32:36;;;;;;;2.63;2.00;;;;;;;19.91;74.22;98895.88;5108301;28;20200;-65
2023/07/29 00:35:03;;;;;;;2.27;1.73;;;;;;;19.92;75.81;98894.88;5108221;28;20243;-65
2023/07/29 00:37:31;;;;;;;2.20;1.80;;;;;;;19.90;76.49;98899.44;5108393;28;20206;-64
2023/07/29 00:39:58;;;;;;;2.57;2.00;;;;;;;19.89;76.06;98900.41;5108632;28;20199;-65
2023/07/29 00:42:24;;;;;;;3.13;1.83;;;;;;;19.83;75.65;98895.94;5108205;28;20622;-65
2023/07/29 00:44:51;;;;;;;2.67;2.00;;;;;;;19.75;75.40;98906.38;5108657;28;20202;-65
2023/07/29 00:47:21;;;;;;;2.73;1.80;;;;;;;19.63;75.75;98898.97;5108333;28;20206;-64
2023/07/29 00:49:48;;;;;;;3.47;2.20;;;;;;;19.55;75.26;98901.63;5108126;28;20206;-64
2023/07/29 00:52:15;;;;;;;2.23;1.97;;;;;;;19.53;75.42;98902.78;5108309;28;20202;-65
2023/07/29 00:54:43;;;;;;;4.83;1.90;;;;;;;19.60;75.60;98907.09;5108231;28;20656;-65
2023/07/29 00:57:13;;;;;;;1.77;1.63;;;;;;;19.62;74.89;98893.97;5111747;28;20199;-64
2023/07/29 00:59:40;;;;;;;2.43;2.00;;;;;;;19.65;74.43;98901.41;5112340;28;20235;-65
2023/07/29 01:02:08;;;;;;;2.33;1.97;;;;;;;19.63;74.82;98898.97;5112427;28;20202;-64
2023/07/29 01:04:36;;;;;;;2.50;1.97;;;;;;;19.62;75.48;98897.34;5112232;28;20203;-65
2023/07/29 01:07:14;;;;;;;2.97;2.10;;;;;;;19.61;75.50;98895.75;5112089;28;20198;-65
2023/07/29 01:09:51;;;;;;;3.10;2.17;;;;;;;19.59;76.00;98897.69;5112073;28;20191;-65
2023/07/29 01:12:25;;;;;;;2.40;1.90;;;;;;;19.59;77.01;98910.66;5112304;28;20197;-65
2023/07/29 01:14:59;;;;;;;2.43;2.03;;;;;;;19.57;79.13;98907.44;5112019;28;20993;-65
2023/07/29 01:17:31;;;;;;;3.63;2.10;;;;;;;19.51;78.47;98907.31;5112164;28;20201;-64
2023/07/29 01:20:06;;;;;;;3.17;2.00;;;;;;;19.45;77.34;98895.84;5112113;27;20203;-65
2023/07/29 01:22:33;;;;;;;3.53;2.20;;;;;;;19.45;78.60;98899.25;5111992;28;20198;-64
2023/07/29 01:25:02;;;;;;;2.80;1.97;;;;;;;19.42;78.51;98891.81;5111899;28;20210;-64
2023/07/29 01:27:29;;;;;;;6.73;1.77;;;;;;;19.43;80.11;98888.25;5111761;28;20206;-65
2023/07/29 01:29:57;;;;;;;2.37;1.90;;;;;;;19.40;79.93;98888.59;5111820;28;20195;-65
2023/07/29 01:32:29;;;;;;;2.27;1.80;;;;;;;19.42;80.76;98891.00;5111729;28;20213;-65
2023/07/29 01:35:01;;;;;;;2.43;2.00;;;;;;;19.36;78.27;98892.50;5111754;28;20204;-64
2023/07/29 01:37:33;;;;;;;2.57;1.83;;;;;;;19.37;78.53;98895.91;5111763;28;20199;-65
2023/07/29 01:40:02;;;;;;;3.63;2.00;;;;;;;19.36;80.11;98902.88;5111904;28;20211;-64
2023/07/29 01:42:31;;;;;;;2.63;2.27;;;;;;;19.35;81.97;98895.28;5111623;28;20691;-65
2023/07/29 01:44:58;;;;;;;2.60;2.00;;;;;;;19.34;81.11;98896.25;5111677;28;20739;-65
2023/07/29 01:47:25;;;;;;;5.40;2.10;;;;;;;19.33;79.69;98894.66;5111538;28;20504;-64
2023/07/29 01:49:52;;;;;;;2.60;2.00;;;;;;;19.32;80.16;98890.44;5111435;28;20236;-64
2023/07/29 01:52:19;;;;;;;2.53;2.00;;;;;;;19.32;81.80;98895.63;5111354;28;20491;-65
2023/07/29 01:54:46;;;;;;;2.37;2.00;;;;;;;19.32;80.70;98890.44;5111347;28;20197;-65
2023/07/29 01:57:14;;;;;;;4.93;2.10;;;;;;;19.30;79.36;98894.97;5111150;28;20236;-64
2023/07/29 01:59:41;;;;;;;2.87;2.10;;;;;;;19.27;80.55;98893.53;5111203;28;20715;-64
2023/07/29 02:02:08;;;;;;;2.43;2.00;;;;;;;19.25;82.41;98898.06;5111443;27;20194;-64
2023/07/29 02:04:35;;;;;;;3.37;2.27;;;;;;;19.25;82.90;98890.31;5111301;28;20672;-64
2023/07/29 02:07:01;;;;;;;2.93;2.07;;;;;;;19.27;82.20;98903.09;5110583;28;20204;-65
2023/07/29 02:09:29;;;;;;;2.63;2.03;;;;;;;19.23;81.76;98903.44;5111220;28;20207;-65
2023/07/29 02:11:56;;;;;;;3.20;2.30;;;;;;;19.23;81.69;98898.28;5111515;28;20289;-65
2023/07/29 02:14:24;;;;;;;2.80;2.10;;;;;;;19.21;81.05;98902.81;5110981;28;20248;-64
2023/07/29 02:16:51;;;;;;;3.10;2.10;;;;;;;19.21;81.97;98905.41;5111047;28;20273;-64
2023/07/29 02:19:18;;;;;;;3.80;2.07;;;;;;;19.20;81.34;98908.19;5110972;28;20357;-64
2023/07/29 02:21:45;;;;;;;3.90;2.10;;;;;;;19.18;80.19;98902.34;5111223;28;20197;-64
2023/07/29 02:24:12;;;;;;;2.57;2.00;;;;;;;19.16;79.49;98899.91;5110526;28;20709;-64
2023/07/29 02:26:39;;;;;;;4.80;2.13;;;;;;;19.15;80.36;98894.91;5110535;28;20202;-65
2023/07/29 02:29:05;;;;;;;3.40;2.13;;;;;;;19.09;79.97;98903.38;5110600;28;20265;-65
2023/07/29 02:31:36;;;;;;;3.30;2.40;;;;;;;18.93;79.81;98907.63;5110838;28;20193;-65
2023/07/29 02:34:03;;;;;;;3.00;2.30;;;;;;;18.88;79.54;98903.94;5110673;28;20198;-65
2023/07/29 02:36:30;;;;;;;2.80;2.20;;;;;;;18.89;79.61;98902.97;5110557;28;20233;-65
2023/07/29 02:38:57;;;;;;;2.60;2.03;;;;;;;18.93;79.73;98912.00;5110467;28;20195;-65
2023/07/29 02:41:24;;;;;;;5.53;2.33;;;;;;;18.93;80.12;98912.81;5110387;28;20209;-65
2023/07/29 02:43:51;;;;;;;3.50;2.43;;;;;;;18.98;80.12;98914.91;5110422;28;20210;-65
2023/07/29 02:46:19;;;;;;;4.07;2.27;;;;;;;19.03;79.33;98922.19;5109638;28;20618;-65
2023/07/29 02:48:47;;;;;;;2.97;2.20;;;;;;;19.01;79.19;98927.53;5109515;28;20198;-65
2023/07/29 02:51:14;;;;;;;5.33;2.20;;;;;;;19.01;78.82;98924.94;5110103;28;20201;-65
2023/07/29 02:53:41;;;;;;;3.13;2.10;;;;;;;19.03;80.09;98930.75;5110296;28;20198;-65
2023/07/29 02:56:09;;;;;;;2.80;2.10;;;;;;;19.02;80.21;98921.34;5109923;28;20223;-65
2023/07/29 02:58:37;;;;;;;3.50;2.30;;;;;;;18.99;80.11;98927.72;5110135;28;20201;-65
2023/07/29 03:01:05;;;;;;;2.43;2.00;;;;;;;18.95;80.52;98923.03;5110274;28;20254;-65
2023/07/29 03:03:32;;;;;;;3.47;2.17;;;;;;;18.96;81.35;98922.03;5110042;28;20673;-65
2023/07/29 03:06:02;;;;;;;3.43;2.23;;;;;;;18.95;81.62;98920.44;5110112;28;20211;-65
2023/07/29 03:08:29;;;;;;;3.30;2.30;;;;;;;18.93;82.06;98914.59;5110484;28;20187;-64
2023/07/29 03:10:57;;;;;;;3.33;2.07;;;;;;;18.87;81.66;98923.06;5110140;28;20197;-64
2023/07/29 03:13:24;;;;;;;4.47;2.23;;;;;;;18.86;80.76;98927.44;5109878;28;20202;-65
2023/07/29 03:15:51;;;;;;;3.37;2.23;;;;;;;18.86;81.24;98926.63;5109891;28;20640;-64
2023/07/29 03:18:18;;;;;;;4.10;2.33;;;;;;;18.85;81.13;98930.19;5109741;28;20701;-65
2023/07/29 03:20:45;;;;;;;3.20;2.20;;;;;;;18.85;81.63;98925.00;5108654;28;20225;-65
2023/07/29 03:23:13;;;;;;;2.77;2.23;;;;;;;18.83;82.32;98932.16;5109615;28;20209;-65
2023/07/29 03:25:40;;;;;;;2.93;2.10;;;;;;;18.81;82.45;98934.09;5109578;28;20198;-65
2023/07/29 03:28:06;;;;;;;3.60;2.40;;;;;;;18.80;82.47;98924.72;5109426;28;20226;-64
2023/07/29 03:30:33;;;;;;;2.67;1.97;;;;;;;18.81;82.36;98918.53;5109514;28;20202;-65
2023/07/29 03:33:00;;;;;;;3.43;2.40;;;;;;;18.84;82.63;98923.38;5109587;28;20203;-64
2023/07/29 03:35:27;;;;;;;5.00;1.90;;;;;;;18.86;82.79;98916.25;5109348;28;20608;-64
2023/07/29 03:37:54;;;;;;;2.60;2.00;;;;;;;18.86;82.57;98918.84;5109219;28;20233;-65
2023/07/29 03:40:22;;;;;;;5.13;2.20;;;;;;;18.88;82.68;98915.13;5109416;28;20202;-64
2023/07/29 03:42:49;;;;;;;2.93;2.20;;;;;;;18.93;82.88;98912.00;5109388;28;20320;-65
2023/07/29 03:45:16;;;;;;;5.70;2.30;;;;;;;18.94;83.36;98913.66;5109065;28;20689;-64
2023/07/29 03:47:43;;;;;;;2.60;2.07;;;;;;;18.94;83.31;98908.47;5109345;28;20662;-65
2023/07/29 03:50:10;;;;;;;3.57;2.33;;;;;;;18.96;83.37;98914.25;5109344;28;20206;-65
2023/07/29 03:52:37;;;;;;;3.03;2.27;;;;;;;18.98;83.67;98909.72;5108909;28;20206;-65
2023/07/29 03:55:04;;;;;;;2.63;2.10;;;;;;;19.00;83.87;98918.16;5109073;28;20197;-65
2023/07/29 03:57:33;;;;;;;2.43;1.83;;;;;;;19.03;84.00;98917.00;5108984;28;20229;-64
2023/07/29 03:59:59;;;;;;;2.50;1.90;;;;;;;19.06;84.40;98922.66;5108971;28;20203;-65
2023/07/29 04:02:26;;;;;;;2.30;1.80;;;;;;;19.08;84.78;98927.66;5108919;27;20292;-65
2023/07/29 04:04:53;;;;;;;2.10;1.90;;;;;;;19.01;85.14;98924.94;5108732;28;20713;-64
2023/07/29 04:07:20;;;;;;;3.43;2.17;;;;;;;19.03;85.12;98925.59;5108581;28;20292;-65
2023/07/29 04:09:47;;;;;;;3.00;2.20;;;;;;;19.09;84.93;98932.69;5108872;28;20209;-65
2023/07/29 04:12:14;;;;;;;3.83;2.23;;;;;;;19.07;84.78;98934.63;5108708;28;20671;-65
2023/07/29 04:14:42;;;;;;;3.00;2.10;;;;;;;19.12;84.33;98924.56;5108997;28;20196;-65
2023/07/29 04:17:09;;;;;;;3.93;2.17;;;;;;;19.19;84.10;98930.66;5108578;28;20734;-65
2023/07/29 04:19:36;;;;;;;2.83;2.30;;;;;;;19.34;83.13;98940.31;5108531;28;20214;-65
2023/07/29 04:22:03;;;;;;;3.63;1.93;;;;;;;19.44;82.81;98927.97;5108583;28;20199;-65
2023/07/29 04:24:30;;;;;;;3.07;2.07;;;;;;;19.51;82.24;98931.47;5108652;28;20228;-65
2023/07/29 04:26:57;;;;;;;3.17;2.20;;;;;;;19.58;82.40;98927.22;5108894;27;20202;-65
2023/07/29 04:29:23;;;;;;;4.37;2.17;;;;;;;19.57;82.68;98933.38;5108452;28;20689;-65
2023/07/29 04:31:52;;;;;;;3.40;2.17;;;;;;;19.59;82.19;98938.41;5107915;28;20199;-65
2023/07/29 04:34:19;;;;;;;2.90;2.10;;;;;;;19.64;82.12;98946.47;5108321;28;20575;-65
2023/07/29 04:36:46;;;;;;;2.93;2.30;;;;;;;19.71;81.54;98942.22;5108257;28;20235;-64
2023/07/29 04:39:13;;;;;;;2.53;2.07;;;;;;;19.73;82.29;98939.47;5108250;28;20525;-65
2023/07/29 04:41:40;;;;;;;4.57;2.23;;;;;;;19.81;81.64;98947.16;5108587;28;20212;-65
2023/07/29 04:44:07;;;;;;;2.83;2.37;;;;;;;19.92;81.77;98944.16;5108164;28;20587;-64
2023/07/29 04:46:34;;;;;;;2.60;2.20;;;;;;;20.07;81.33;98947.63;5108355;28;20211;-65
2023/07/29 04:49:03;;;;;;;2.73;1.93;;;;;;;20.25;81.57;98949.09;5108348;28;20202;-65
2023/07/29 04:51:32;;;;;;;4.67;1.90;;;;;;;20.42;80.74;98953.16;5108569;28;20225;-65
2023/07/29 04:53:59;;;;;;;2.63;2.07;;;;;;;20.61;79.48;98943.25;5108179;28;20200;-64
2023/07/29 04:56:26;;;;;;;2.83;2.00;;;;;;;20.80;79.35;98947.94;5107974;28;20237;-65
2023/07/29 04:58:53;;;;;;;2.83;2.07;;;;;;;20.97;78.04;98956.31;5108147;28;20204;-64
2023/07/29 05:01:20;;;;;;;4.43;2.10;;;;;;;21.11;78.47;98959.88;5108192;28;20206;-65
2023/07/29 05:03:47;;;;;;;3.40;2.27;;;;;;;21.31;76.25;98944.53;5108056;28;20208;-66
2023/07/29 05:06:15;;;;;;;3.03;2.27;;;;;;;21.47;74.59;98949.53;5108278;28;20222;-65
2023/07/29 05:08:42;;;;;;;2.30;2.10;;;;;;;21.61;72.24;98945.25;5108365;28;20212;-65
2023/07/29 05:11:09;;;;;;;2.93;2.30;;;;;;;21.72;73.03;98947.38;5108031;28;20211;-64
2023/07/29 05:13:36;;;;;;;2.57;2.17;;;;;;;21.88;72.84;98939.31;5108255;28;20222;-65
2023/07/29 05:16:02;;;;;;;2.50;1.87;;;;;;;22.08;72.44;98943.91;5108282;28;20205;-64
2023/07/29 05:18:29;;;;;;;3.03;2.20;;;;;;;22.29;74.19;98951.69;5108173;28;20209;-65
2023/07/29 05:20:56;;;;;;;3.03;2.10;;;;;;;22.47;70.92;98950.41;5108103;28;20212;-64
2023/07/29 05:23:24;;;;;;;2.13;1.92;;;;;;;22.60;69.54;98955.66;5107939;28;20595;-64
2023/07/29 05:25:51;;;;;;;3.05;2.00;;;;;;;22.81;69.71;98952.19;5107955;28;20197;-65
2023/07/29 05:28:18;;;;;;;2.92;2.42;;;;;;;22.97;68.92;98959.72;5107910;28;20201;-65
2023/07/29 05:30:45;;;;;;;2.20;2.00;;;;;;;23.11;64.76;98963.19;5107994;28;20198;-67
2023/07/29 05:33:11;;;;;;;4.78;2.00;;;;;;;23.31;65.32;98962.47;5107839;28;20201;-64
2023/07/29 05:35:38;;;;;;;3.03;2.40;;;;;;;23.51;64.99;98958.09;5107848;28;20227;-65
2023/07/29 05:38:06;;;;;;;3.45;2.20;;;;;;;23.65;65.01;98964.94;5107753;28;20229;-64
2023/07/29 05:40:34;;;;;;;2.50;2.00;;;;;;;23.78;62.51;98963.38;5107897;28;20197;-65
2023/07/29 05:43:03;;;;;;;3.47;2.20;;;;;;;23.98;63.56;98964.22;5109256;28;20205;-64
2023/07/29 05:45:30;;;;;;;2.63;2.00;;;;;;;24.20;65.53;98966.59;5111804;28;20205;-65
2023/07/29 05:47:57;;;;;;;2.55;2.08;;;;;;;24.36;70.66;98971.44;5111670;28;20212;-65
2023/07/29 05:50:24;;;;;;;2.20;2.00;;;;;;;24.55;65.18;98970.63;5111849;28;20197;-65
2023/07/29 05:52:51;;;;;;;3.17;2.00;;;;;;;24.71;63.93;98973.81;5111216;28;20988;-65
2023/07/29 05:55:18;;;;;;;3.47;1.80;;;;;;;24.85;65.88;98980.63;5111777;28;20200;-65
2023/07/29 05:57:46;;;;;;;2.20;2.00;;;;;;;24.99;66.85;98979.56;5111126;28;20236;-65
2023/07/29 06:00:13;;;;;;;2.15;1.88;;;;;;;25.14;65.64;98989.00;5111335;27;20208;-65
2023/07/29 06:02:40;;;;;;;3.58;2.00;;;;;;;25.29;61.46;98994.75;5110981;28;20197;-65
2023/07/29 06:05:08;;;;;;;2.40;2.00;;;;;;;25.43;62.08;98993.69;5111339;28;20255;-65
2023/07/29 06:07:35;;;;;;;1.95;1.75;;;;;;;25.59;58.58;98991.59;5111118;28;20209;-65
2023/07/29 06:10:02;;;;;;;2.58;1.88;;;;;;;25.71;56.75;98992.50;5111655;28;20197;-64
2023/07/29 06:12:29;;;;;;;2.28;1.88;;;;;;;25.72;56.08;98991.53;5110937;28;20207;-65
2023/07/29 06:14:57;;;;;;;4.10;1.80;;;;;;;25.91;59.63;98990.59;5111324;28;20551;-65
2023/07/29 06:17:24;;;;;;;2.28;1.90;;;;;;;26.08;59.80;98996.13;5110812;28;20225;-64
2023/07/29 06:19:51;;;;;;;3.15;2.05;;;;;;;26.17;55.50;98994.03;5110965;28;20201;-65
2023/07/29 06:22:17;;;;;;;2.63;1.90;;;;;;;26.27;57.98;98991.75;5110753;28;20209;-65
2023/07/29 06:24:44;;;;;;;2.10;1.90;;;;;;;26.41;59.64;98990.59;5110727;28;20194;-65
2023/07/29 06:27:11;;;;;;;2.70;1.98;;;;;;;26.50;52.79;98993.78;5110833;28;20194;-65
2023/07/29 06:29:38;;;;;;;2.10;1.83;;;;;;;26.74;56.91;98991.31;5110449;28;20201;-65
2023/07/29 06:32:07;;;;;;;3.63;1.98;;;;;;;26.97;53.88;99003.78;5110908;28;20213;-65
2023/07/29 06:34:34;;;;;;;6.10;1.92;;;;;;;26.99;50.66;98996.47;5110783;28;20205;-65
2023/07/29 06:37:01;;;;;;;2.33;1.95;;;;;;;27.02;52.63;98996.03;5110915;28;20229;-65
2023/07/29 06:39:27;;;;;;;1.88;1.70;;;;;;;27.03;50.11;98997.66;5110594;28;20670;-65
2023/07/29 06:41:54;;;;;;;2.42;1.95;;;;;;;27.12;50.64;98996.34;5110342;28;20204;-64
2023/07/29 06:44:21;;;;;;;3.63;2.10;;;;;;;27.25;49.82;99006.69;5110646;28;20198;-65
2023/07/29 06:46:48;;;;;;;1.98;1.80;;;;;;;27.55;48.09;99005.91;5110441;28;20204;-65
2023/07/29 06:49:16;;;;;;;2.10;1.90;;;;;;;27.68;47.28;99004.91;5110281;28;20201;-65
2023/07/29 06:51:43;;;;;;;2.42;2.22;;;;;;;27.82;47.40;99005.56;5110468;28;20198;-65
2023/07/29 06:54:10;;;;;;;3.22;2.55;;;;;;;28.05;47.69;99005.63;5110383;28;20201;-65
2023/07/29 06:56:37;;;;;;;2.30;1.90;;;;;;;28.18;47.10;99008.00;5110153;28;20216;-65
2023/07/29 06:59:04;;;;;;;2.60;2.25;;;;;;;28.27;45.53;99003.22;5110217;28;20204;-65
2023/07/29 07:01:30;;;;;;;2.97;2.15;;;;;;;28.30;47.03;99002.75;5110614;28;20197;-65
2023/07/29 07:03:58;;;;;;;5.95;2.33;;;;;;;28.28;44.57;99010.09;5110061;28;20645;-65
2023/07/29 07:06:26;;;;;;;3.13;2.30;;;;;;;28.55;47.70;99009.66;5110165;28;20217;-65
2023/07/29 07:08:53;;;;;;;2.28;1.92;;;;;;;28.70;49.27;98998.66;5109794;28;20202;-65
2023/07/29 07:11:20;;;;;;;2.10;1.90;;;;;;;28.94;47.33;99002.06;5109677;28;20212;-65
2023/07/29 07:13:47;;;;;;;2.83;2.35;;;;;;;29.01;42.93;99008.78;5109687;28;20207;-66
2023/07/29 07:16:14;;;;;;;2.92;2.03;;;;;;;28.92;42.77;99004.94;5109973;28;20201;-66
2023/07/29 07:18:40;;;;;;;4.10;2.22;;;;;;;29.03;44.80;99006.75;5109800;28;20228;-65
2023/07/29 07:21:07;;;;;;;2.70;2.00;;;;;;;29.34;47.01;99010.75;5109724;28;20206;-65
2023/07/29 07:23:36;;;;;;;2.38;2.17;;;;;;;29.56;47.94;99010.91;5109844;28;20201;-65
2023/07/29 07:26:03;;;;;;;2.75;2.00;;;;;;;29.77;45.74;99006.81;5109873;27;20198;-66
2023/07/29 07:28:29;;;;;;;2.40;2.08;;;;;;;29.88;47.64;99010.44;5109988;28;20221;-66
2023/07/29 07:30:56;;;;;;;2.75;2.20;;;;;;;29.95;44.16;99012.91;5109954;28;20197;-66
2023/07/29 07:33:23;;;;;;;3.53;2.17;;;;;;;30.05;43.41;99012.25;5109009;28;20577;-65
2023/07/29 07:35:51;;;;;;;4.57;1.92;;;;;;;30.33;48.80;99008.78;5108993;28;20391;-63
2023/07/29 07:38:18;;;;;;;2.53;2.15;;;;;;;30.54;45.03;99009.84;5109442;28;20241;-63
2023/07/29 07:40:55;;;;;;;3.40;2.55;;;;;;;30.66;47.37;99007.91;5109230;28;20201;-63
2023/07/29 07:43:22;;;;;;;2.58;2.20;;;;;;;30.82;43.16;99011.56;5109020;28;20197;-63
2023/07/29 07:45:49;;;;;;;2.90;2.60;;;;;;;30.87;44.48;99004.53;5109243;28;20217;-64
2023/07/29 08:00:35;;;;;;;3.13;2.38;;;;;;;31.60;39.76;99001.63;5105401;27;20554;-63
2023/07/29 08:03:02;;;;;;;4.32;2.58;;;;;;;31.58;43.86;99003.72;5105333;28;20697;-63
2023/07/29 08:05:29;;;;;;;3.40;2.45;;;;;;;31.69;38.35;99002.75;5105542;28;20213;-64
2023/07/29 08:07:56;;;;;;;2.65;2.33;;;;;;;31.88;45.30;99002.38;5105533;28;20220;-65
2023/07/29 08:10:23;;;;;;;5.88;4.43;;;;;;;31.88;44.53;98999.72;5105303;28;20209;-65
2023/07/29 08:12:50;;;;;;;3.80;3.20;;;;;;;31.73;40.25;99001.19;5105196;28;20198;-65
2023/07/29 08:15:17;;;;;;;3.50;2.83;;;;;;;31.95;44.00;99000.38;5104904;28;20218;-65
2023/07/29 08:17:46;;;;;;;4.72;3.17;;;;;;;32.18;44.57;98997.34;5104890;28;20205;-65
2023/07/29 08:20:13;;;;;;;4.43;2.78;;;;;;;32.22;40.34;98990.50;5105160;28;20211;-65
2023/07/29 08:22:40;;;;;;;3.53;2.60;;;;;;;32.22;43.21;98987.84;5104882;28;20202;-65
2023/07/29 08:25:08;;;;;;;4.40;2.55;;;;;;;32.29;43.44;98986.81;5104792;28;20666;-65
2023/07/29 08:27:35;;;;;;;5.10;3.00;;;;;;;32.14;37.33;98985.66;5105043;28;20201;-66
2023/07/29 08:30:02;;;;;;;3.25;2.60;;;;;;;32.12;41.89;98987.78;5104985;28;20282;-66
2023/07/29 08:32:29;;;;;;;3.50;2.97;;;;;;;32.33;43.51;98987.94;5104835;28;20262;-66
2023/07/29 08:34:57;;;;;;;2.95;2.63;;;;;;;32.31;39.79;98982.88;5104646;28;20649;-66
2023/07/29 08:37:24;;;;;;;3.60;2.60;;;;;;;32.58;42.71;98985.44;5104557;28;20373;-66
2023/07/29 08:39:53;;;;;;;5.38;2.88;;;;;;;32.62;40.37;98981.22;5104515;28;20212;-66
2023/07/29 08:42:20;;;;;;;3.05;2.47;;;;;;;32.74;40.62;98982.88;5104533;28;20709;-66
2023/07/29 08:44:50;;;;;;;3.42;2.60;;;;;;;32.62;38.49;98981.22;5104606;28;20202;-65
2023/07/29 08:47:17;;;;;;;3.67;2.67;;;;;;;32.85;42.37;98973.91;5104890;28;20223;-66
2023/07/29 08:49:45;;;;;;;3.72;2.60;;;;;;;33.05;38.61;98989.91;5104238;28;20225;-65
2023/07/29 08:52:15;;;;;;;6.55;3.28;;;;;;;33.09;40.00;98985.66;5104147;28;20328;-64
2023/07/29 08:54:42;;;;;;;5.30;3.28;;;;;;;33.25;42.84;98986.50;5104496;28;20202;-65
2023/07/29 08:57:10;;;;;;;13.68;7.85;;;;;;;33.34;41.03;98978.84;5104416;28;20204;-65
2023/07/29 08:59:37;;;;;;;29.30;13.38;;;;;;;33.44;41.33;98980.69;5114704;28;20617;-65
2023/07/29 09:02:04;;;;;;;65.20;26.63;;;;;;;33.54;40.94;98980.72;5111188;28;20201;-66
2023/07/29 09:04:31;;;;;;;12.70;5.75;;;;;;;33.53;39.30;98973.84;5111151;28;20197;-66
2023/07/29 09:06:59;;;;;;;74.50;29.85;;;;;;;33.70;37.43;98973.59;5111238;28;20224;-66
2023/07/29 09:09:28;;;;;;;7.03;4.47;;;;;;;33.88;39.65;98966.94;5110848;28;20709;-65
2023/07/29 09:11:55;;;;;;;4.28;2.97;;;;;;;33.81;39.06;98975.19;5110906;28;20194;-65
2023/07/29 09:14:22;;;;;;;4.05;2.50;;;;;;;33.85;39.50;98965.63;5110867;28;20194;-66
2023/07/29 09:16:49;;;;;;;32.55;14.65;;;;;;;33.92;36.10;98968.81;5111151;28;20585;-65
2023/07/29 09:19:16;;;;;;;44.03;18.33;;;;;;;34.01;42.07;98963.75;5111025;28;20197;-65
2023/07/29 09:21:43;;;;;;;22.40;9.35;;;;;;;34.09;40.72;98967.75;5111272;27;20217;-65
2023/07/29 09:24:10;;;;;;;25.92;12.13;;;;;;;34.00;34.60;98968.25;5110865;28;20292;-66
2023/07/29 09:26:39;;;;;;;51.60;22.83;;;;;;;34.11;39.98;98973.59;5110906;28;20232;-66
2023/07/29 09:29:06;;;;;;;7.32;3.08;;;;;;;33.62;37.80;98960.84;5110667;28;20233;-64
2023/07/29 09:31:33;;;;;;;77.53;26.30;;;;;;;33.54;42.12;98959.50;5110629;28;20193;-66
2023/07/29 09:34:01;;;;;;;6.82;4.05;;;;;;;33.53;38.23;98958.72;5110566;28;20202;-66
2023/07/29 09:36:28;;;;;;;44.60;17.95;;;;;;;33.66;36.78;98956.59;5109385;28;20189;-64
2023/07/29 09:38:55;;;;;;;6.32;4.18;;;;;;;33.79;37.95;98956.88;5110023;28;20202;-65
2023/07/29 09:41:24;;;;;;;20.00;9.27;;;;;;;33.79;38.79;98956.88;5110219;28;20202;-65
2023/07/29 09:43:57;;;;;;;73.28;26.50;;;;;;;33.77;39.28;98952.88;5109780;28;20231;-65
2023/07/29 09:46:25;;;;;;;16.48;7.93;;;;;;;33.94;40.34;98961.34;5110145;28;20202;-65
2023/07/29 09:48:54;;;;;;;25.08;9.80;;;;;;;33.99;39.40;98961.34;5109999;28;20290;-65
2023/07/29 09:51:21;;;;;;;6.47;3.50;;;;;;;34.07;41.63;98952.09;5109926;28;20198;-64
2023/07/29 09:53:49;;;;;;;309.48;123.47;;;;;;;34.23;38.20;98952.84;5109436;28;20205;-65
2023/07/29 09:56:16;;;;;;;4.47;3.30;;;;;;;33.50;34.28;98964.53;5109979;28;20228;-64
2023/07/29 09:58:45;;;;;;;217.18;93.88;;;;;;;33.73;37.28;98957.16;5109652;28;20522;-64
2023/07/29 10:01:14;;;;;;;6.65;3.80;;;;;;;33.72;36.91;98956.34;5109676;28;20662;-63
2023/07/29 10:03:41;;;;;;;4.25;2.65;;;;;;;33.96;34.31;98951.28;5109338;28;20228;-67
2023/07/29 10:06:09;;;;;;;5.10;2.90;;;;;;;34.08;40.73;98956.34;5109328;28;20213;-66
2023/07/29 10:08:38;;;;;;;3.78;2.35;;;;;;;34.24;35.45;98944.63;5109512;28;20403;-65
2023/07/29 10:11:07;;;;;;;5.43;2.67;;;;;;;34.26;38.36;98944.34;5109179;28;20201;-66
2023/07/29 10:13:34;;;;;;;5.45;2.85;;;;;;;33.98;31.46;98953.69;5108668;28;20201;-68
2023/07/29 10:16:02;;;;;;;5.97;2.60;;;;;;;34.08;36.55;98944.94;5109597;28;20201;-67
2023/07/29 10:18:31;;;;;;;3.30;2.70;;;;;;;34.35;37.77;98947.25;5109597;28;20198;-62
2023/07/29 10:21:00;;;;;;;3.30;2.53;;;;;;;34.24;36.44;98938.53;5109866;28;20202;-67
2023/07/29 10:23:32;;;;;;;4.95;3.00;;;;;;;34.28;36.94;98936.91;5108961;28;20205;-61
2023/07/29 10:26:04;;;;;;;5.90;3.33;;;;;;;34.46;36.67;98938.19;5108449;28;20205;-68
2023/07/29 10:28:32;;;;;;;4.15;2.60;;;;;;;34.49;33.61;98938.44;5108899;28;20202;-64
2023/07/29 10:31:00;;;;;;;4.20;2.78;;;;;;;34.90;38.02;98938.25;5109358;28;20210;-67
2023/07/29 10:33:27;;;;;;;4.07;2.47;;;;;;;34.90;32.12;98932.94;5109083;28;20217;-68
2023/07/29 10:35:56;;;;;;;4.43;2.70;;;;;;;35.15;35.43;98936.56;5109029;28;20213;-67
2023/07/29 10:38:25;;;;;;;3.95;2.60;;;;;;;35.28;37.57;98929.81;5109177;28;20205;-67
2023/07/29 10:40:55;;;;;;;3.40;2.50;;;;;;;35.47;35.91;98927.31;5108796;28;20260;-67
2023/07/29 10:43:26;;;;;;;4.50;2.50;;;;;;;35.31;33.71;98927.41;5108837;28;20197;-65
2023/07/29 10:45:54;;;;;;;4.40;2.65;;;;;;;35.55;37.16;98916.09;5108805;28;20198;-64
2023/07/29 10:48:41;;;;;;;3.55;2.55;;;;;;;35.41;31.98;98925.75;5109096;28;20213;-63
2023/07/29 10:51:30;;;;;;;4.50;2.72;;;;;;;35.51;35.18;98910.50;5108588;28;20225;-66
2023/07/29 10:53:58;;;;;;;3.28;2.45;;;;;;;35.54;33.99;98917.13;5108584;28;20210;-65
2023/07/29 10:56:30;;;;;;;3.67;2.60;;;;;;;35.41;33.39;98912.47;5107624;28;20205;-65
2023/07/29 10:58:58;;;;;;;2.70;2.40;;;;;;;35.28;35.27;98912.00;5108067;28;20211;-66
2023/07/29 11:01:31;;;;;;;4.13;2.70;;;;;;;35.37;35.22;98910.34;5108566;28;20197;-64
2023/07/29 11:04:24;;;;;;;3.65;2.60;;;;;;;35.24;33.69;98910.97;5108188;28;20182;-66
2023/07/29 11:07:26;;;;;;;3.20;2.40;;;;;;;34.98;34.06;98901.56;5108932;28;20205;-67
2023/07/29 11:09:58;;;;;;;5.90;2.80;;;;;;;34.78;33.94;98902.47;5103619;28;20229;-65
2023/07/29 11:12:45;;;;;;;3.22;2.45;;;;;;;35.00;36.10;98896.78;5107524;28;20280;-65
2023/07/29 11:15:20;;;;;;;4.15;2.70;;;;;;;35.03;33.85;98898.88;5108645;28;20227;-62
2023/07/29 11:17:48;;;;;;;5.13;2.65;;;;;;;35.25;33.83;98901.94;5108375;28;20678;-63
2023/07/29 11:20:16;;;;;;;3.85;2.88;;;;;;;35.25;33.24;98901.94;5108125;28;20218;-65
2023/07/29 11:22:44;;;;;;;3.95;2.47;;;;;;;35.41;33.03;98899.16;5107504;28;20232;-64
2023/07/29 11:25:13;;;;;;;3.75;2.42;;;;;;;35.31;33.83;98895.50;5107865;28;20193;-62
2023/07/29 11:27:40;;;;;;;3.33;2.42;;;;;;;35.60;35.64;98886.78;5108186;28;20201;-69
2023/07/29 11:30:09;;;;;;;3.28;2.38;;;;;;;35.62;33.66;98889.94;5109036;28;20236;-64
2023/07/29 11:32:36;;;;;;;3.28;2.30;;;;;;;35.68;32.17;98894.16;5108005;28;20203;-64
2023/07/29 11:35:05;;;;;;;3.22;2.30;;;;;;;35.38;33.12;98888.00;5108103;28;20210;-64
2023/07/29 11:37:34;;;;;;;4.60;2.63;;;;;;;35.46;36.14;98878.66;5107884;28;20197;-63
2023/07/29 11:40:03;;;;;;;3.53;2.45;;;;;;;35.44;35.08;98874.69;5106259;28;20660;-63
2023/07/29 11:42:32;;;;;;;3.78;2.00;;;;;;;35.49;35.61;98869.28;5107792;28;20198;-64
2023/07/29 11:44:59;;;;;;;3.05;2.30;;;;;;;35.37;33.42;98878.47;5108122;28;20588;-64
2023/07/29 11:47:26;;;;;;;2.85;2.00;;;;;;;35.36;36.31;98871.53;5108137;28;20510;-64